sensor_id;sensor_type;location;lat;lon;timestamp;pressure;altitude;pressure_sealevel;temperature;humidity
45888;BME280;31595;51.418;7.572;2023-05-01T00:02:29;100465.81;;;9.51;64.87
45888;BME280;31595;51.418;7.572;2023-05-01T00:04:56;100469.63;;;9.55;64.19
45888;BME280;31595;51.418;7.572;2023-05-01T00:07:25;100466.03;;;9.54;65.15
45888;BME280;31595;51.418;7.572;2023-05-01T00:09:56;100468.59;;;9.51;65.02
45888;BME280;31595;51.418;7.572;2023-05-01T00:12:23;100455.84;;;9.50;64.02
45888;BME280;31595;51.418;7.572;2023-05-01T00:14:52;100454.28;;;9.44;63.84
45888;BME280;31595;51.418;7.572;2023-05-01T00:17:19;100452.72;;;9.38;64.57
45888;BME280;31595;51.418;7.572;2023-05-01T00:19:50;100438.84;;;9.38;65.66
45888;BME280;31595;51.418;7.572;2023-05-01T00:22:17;100444.19;;;9.34;65.02
45888;BME280;31595;51.418;7.572;2023-05-01T00:24:46;100435.53;;;9.35;64.78
45888;BME280;31595;51.418;7.572;2023-05-01T00:27:14;100436.97;;;9.33;65.52
45888;BME280;31595;51.418;7.572;2023-05-01T00:29:41;100423.50;;;9.26;65.69
45888;BME280;31595;51.418;7.572;2023-05-01T00:32:09;100433.75;;;9.26;64.75
45888;BME280;31595;51.418;7.572;2023-05-01T00:34:36;100427.91;;;9.27;66.15
45888;BME280;31595;51.418;7.572;2023-05-01T00:37:03;100430.69;;;9.27;64.85
45888;BME280;31595;51.418;7.572;2023-05-01T00:39:30;100421.31;;;9.23;64.27
45888;BME280;31595;51.418;7.572;2023-05-01T00:41:59;100416.97;;;9.17;65.77
45888;BME280;31595;51.418;7.572;2023-05-01T00:44:27;100411.53;;;9.12;65.40
45888;BME280;31595;51.418;7.572;2023-05-01T00:46:54;100408.81;;;9.07;66.17
45888;BME280;31595;51.418;7.572;2023-05-01T00:49:25;100410.56;;;9.03;64.99
45888;BME280;31595;51.418;7.572;2023-05-01T00:51:53;100409.44;;;9.04;64.54
45888;BME280;31595;51.418;7.572;2023-05-01T00:54:20;100403.09;;;9.03;65.31
45888;BME280;31595;51.418;7.572;2023-05-01T00:56:48;100394.22;;;9.01;65.31
45888;BME280;31595;51.418;7.572;2023-05-01T00:59:17;100402.97;;;8.94;65.12
45888;BME280;31595;51.418;7.572;2023-05-01T01:01:44;100386.78;;;8.83;65.10
45888;BME280;31595;51.418;7.572;2023-05-01T01:04:12;100398.28;;;8.76;65.07
45888;BME280;31595;51.418;7.572;2023-05-01T01:06:44;100392.19;;;8.74;65.01
45888;BME280;31595;51.418;7.572;2023-05-01T01:09:22;100388.97;;;8.67;65.53
45888;BME280;31595;51.418;7.572;2023-05-01T01:12:08;100384.56;;;8.66;66.03
45888;BME280;31595;51.418;7.572;2023-05-01T01:14:41;100371.78;;;8.65;66.78
45888;BME280;31595;51.418;7.572;2023-05-01T01:17:19;100377.16;;;8.61;66.10
45888;BME280;31595;51.418;7.572;2023-05-01T01:22:53;100373.41;;;8.52;65.92
45888;BME280;31595;51.418;7.572;2023-05-01T01:25:49;100367.31;;;8.50;66.46
45888;BME280;31595;51.418;7.572;2023-05-01T01:28:48;100364.94;;;8.43;67.30
45888;BME280;31595;51.418;7.572;2023-05-01T01:31:29;100361.88;;;8.45;67.04
45888;BME280;31595;51.418;7.572;2023-05-01T01:34:03;100358.28;;;8.44;65.98
45888;BME280;31595;51.418;7.572;2023-05-01T01:36:39;100362.47;;;8.42;66.54
45888;BME280;31595;51.418;7.572;2023-05-01T01:39:12;100364.50;;;8.36;66.14
45888;BME280;31595;51.418;7.572;2023-05-01T01:41:42;100352.88;;;8.34;66.52
45888;BME280;31595;51.418;7.572;2023-05-01T01:44:15;100349.25;;;8.33;67.09
45888;BME280;31595;51.418;7.572;2023-05-01T01:46:47;100353.69;;;8.34;66.99
45888;BME280;31595;51.418;7.572;2023-05-01T01:49:18;100353.97;;;8.33;66.75
45888;BME280;31595;51.418;7.572;2023-05-01T01:51:48;100342.88;;;8.33;67.00
45888;BME280;31595;51.418;7.572;2023-05-01T01:54:21;100341.75;;;8.34;67.17
45888;BME280;31595;51.418;7.572;2023-05-01T01:56:49;100337.13;;;8.29;67.25
45888;BME280;31595;51.418;7.572;2023-05-01T01:59:19;100340.25;;;8.23;67.61
45888;BME280;31595;51.418;7.572;2023-05-01T02:01:48;100332.47;;;8.25;66.65
45888;BME280;31595;51.418;7.572;2023-05-01T02:04:18;100332.16;;;8.26;66.51
45888;BME280;31595;51.418;7.572;2023-05-01T02:06:45;100327.00;;;8.20;67.76
45888;BME280;31595;51.418;7.572;2023-05-01T02:09:14;100324.75;;;8.22;67.32
45888;BME280;31595;51.418;7.572;2023-05-01T02:11:43;100320.41;;;8.16;67.98
45888;BME280;31595;51.418;7.572;2023-05-01T02:14:13;100321.69;;;8.23;66.58
45888;BME280;31595;51.418;7.572;2023-05-01T02:16:41;100319.78;;;8.19;67.78
45888;BME280;31595;51.418;7.572;2023-05-01T02:19:10;100317.63;;;8.16;67.54
45888;BME280;31595;51.418;7.572;2023-05-01T02:21:41;100313.72;;;8.17;67.98
45888;BME280;31595;51.418;7.572;2023-05-01T02:24:11;100312.09;;;8.16;66.68
45888;BME280;31595;51.418;7.572;2023-05-01T02:26:41;100311.78;;;8.17;67.02
45888;BME280;31595;51.418;7.572;2023-05-01T02:29:09;100308.19;;;8.17;67.07
45888;BME280;31595;51.418;7.572;2023-05-01T02:31:36;100306.25;;;8.17;66.64
45888;BME280;31595;51.418;7.572;2023-05-01T02:34:04;100307.34;;;8.16;67.75
45888;BME280;31595;51.418;7.572;2023-05-01T02:36:31;100303.78;;;8.16;66.77
45888;BME280;31595;51.418;7.572;2023-05-01T02:39:00;100302.72;;;8.11;68.06
45888;BME280;31595;51.418;7.572;2023-05-01T02:41:28;100299.03;;;8.16;67.23
45888;BME280;31595;51.418;7.572;2023-05-01T02:44:02;100297.16;;;8.11;67.22
45888;BME280;31595;51.418;7.572;2023-05-01T02:46:32;100288.34;;;8.09;68.02
45888;BME280;31595;51.418;7.572;2023-05-01T02:49:02;100289.75;;;8.07;68.19
45888;BME280;31595;51.418;7.572;2023-05-01T02:51:31;100282.50;;;8.11;66.89
45888;BME280;31595;51.418;7.572;2023-05-01T02:54:00;100285.31;;;8.06;66.90
45888;BME280;31595;51.418;7.572;2023-05-01T02:56:28;100275.38;;;8.05;67.73
45888;BME280;31595;51.418;7.572;2023-05-01T02:58:55;100278.66;;;8.07;67.67
45888;BME280;31595;51.418;7.572;2023-05-01T03:01:23;100273.19;;;8.02;67.70
45888;BME280;31595;51.418;7.572;2023-05-01T03:03:50;100279.06;;;8.00;66.97
45888;BME280;31595;51.418;7.572;2023-05-01T03:06:17;100275.97;;;8.02;66.94
45888;BME280;31595;51.418;7.572;2023-05-01T03:08:45;100276.19;;;8.05;66.84
45888;BME280;31595;51.418;7.572;2023-05-01T03:11:14;100273.50;;;8.00;66.89
45888;BME280;31595;51.418;7.572;2023-05-01T03:13:42;100263.53;;;7.99;67.92
45888;BME280;31595;51.418;7.572;2023-05-01T03:16:09;100254.09;;;8.00;66.93
45888;BME280;31595;51.418;7.572;2023-05-01T03:18:36;100258.72;;;8.05;66.89
45888;BME280;31595;51.418;7.572;2023-05-01T03:21:04;100258.22;;;8.03;68.11
45888;BME280;31595;51.418;7.572;2023-05-01T03:23:31;100255.44;;;8.03;67.31
45888;BME280;31595;51.418;7.572;2023-05-01T03:25:58;100251.53;;;8.04;68.50
45888;BME280;31595;51.418;7.572;2023-05-01T03:28:27;100249.78;;;8.08;67.88
45888;BME280;31595;51.418;7.572;2023-05-01T03:30:54;100250.13;;;8.06;67.26
45888;BME280;31595;51.418;7.572;2023-05-01T03:33:22;100250.63;;;8.08;68.43
45888;BME280;31595;51.418;7.572;2023-05-01T03:35:58;100241.47;;;8.08;67.27
45888;BME280;31595;51.418;7.572;2023-05-01T03:38:26;100240.94;;;8.06;67.60
45888;BME280;31595;51.418;7.572;2023-05-01T03:40:53;100240.25;;;8.14;67.94
45888;BME280;31595;51.418;7.572;2023-05-01T03:43:21;100232.75;;;8.14;68.19
45888;BME280;31595;51.418;7.572;2023-05-01T03:45:50;100235.53;;;8.14;68.13
45888;BME280;31595;51.418;7.572;2023-05-01T03:48:17;100229.97;;;8.14;67.87
45888;BME280;31595;51.418;7.572;2023-05-01T03:50:45;100228.56;;;8.17;68.47
45888;BME280;31595;51.418;7.572;2023-05-01T03:53:12;100223.00;;;8.17;67.59
45888;BME280;31595;51.418;7.572;2023-05-01T03:55:40;100232.16;;;8.18;68.50
45888;BME280;31595;51.418;7.572;2023-05-01T03:58:07;100226.72;;;8.26;67.52
45888;BME280;31595;51.418;7.572;2023-05-01T04:00:35;100227.34;;;8.23;67.07
45888;BME280;31595;51.418;7.572;2023-05-01T04:03:04;100222.00;;;8.27;68.14
45888;BME280;31595;51.418;7.572;2023-05-01T04:05:32;100221.19;;;8.26;67.86
45888;BME280;31595;51.418;7.572;2023-05-01T04:07:59;100221.06;;;8.31;67.85
45888;BME280;31595;51.418;7.572;2023-05-01T04:10:26;100220.47;;;8.34;67.83
45888;BME280;31595;51.418;7.572;2023-05-01T04:12:53;100219.34;;;8.36;68.09
45888;BME280;31595;51.418;7.572;2023-05-01T04:15:21;100215.66;;;8.40;66.84
45888;BME280;31595;51.418;7.572;2023-05-01T04:17:48;100216.22;;;8.42;66.98
45888;BME280;31595;51.418;7.572;2023-05-01T04:20:18;100225.56;;;8.46;67.80
45888;BME280;31595;51.418;7.572;2023-05-01T04:22:45;100211.88;;;8.50;66.33
45888;BME280;31595;51.418;7.572;2023-05-01T04:25:13;100222.06;;;8.54;67.81
45888;BME280;31595;51.418;7.572;2023-05-01T04:27:40;100214.47;;;8.60;66.33
45888;BME280;31595;51.418;7.572;2023-05-01T04:30:08;100205.53;;;8.63;66.55
45888;BME280;31595;51.418;7.572;2023-05-01T04:32:36;100209.53;;;8.71;65.78
45888;BME280;31595;51.418;7.572;2023-05-01T04:35:04;100204.19;;;8.74;66.46
45888;BME280;31595;51.418;7.572;2023-05-01T04:37:33;100203.78;;;8.81;65.75
45888;BME280;31595;51.418;7.572;2023-05-01T04:40:00;100202.53;;;8.87;65.68
45888;BME280;31595;51.418;7.572;2023-05-01T04:42:30;100202.75;;;8.91;66.08
45888;BME280;31595;51.418;7.572;2023-05-01T04:44:58;100200.47;;;8.93;65.76
45888;BME280;31595;51.418;7.572;2023-05-01T04:47:28;100203.34;;;9.02;65.35
45888;BME280;31595;51.418;7.572;2023-05-01T04:49:56;100200.97;;;9.09;65.24
45888;BME280;31595;51.418;7.572;2023-05-01T04:52:23;100200.66;;;9.10;66.44
45888;BME280;31595;51.418;7.572;2023-05-01T04:54:51;100204.03;;;9.21;66.25
45888;BME280;31595;51.418;7.572;2023-05-01T04:57:19;100199.41;;;9.30;65.70
45888;BME280;31595;51.418;7.572;2023-05-01T04:59:46;100202.03;;;9.35;65.80
45888;BME280;31595;51.418;7.572;2023-05-01T05:02:13;100199.34;;;9.44;65.80
45888;BME280;31595;51.418;7.572;2023-05-01T05:04:41;100198.81;;;9.56;65.82
45888;BME280;31595;51.418;7.572;2023-05-01T05:07:08;100196.38;;;9.63;64.52
45888;BME280;31595;51.418;7.572;2023-05-01T05:09:35;100196.03;;;9.79;64.55
45888;BME280;31595;51.418;7.572;2023-05-01T05:12:04;100198.69;;;9.84;64.26
45888;BME280;31595;51.418;7.572;2023-05-01T05:14:31;100193.38;;;9.96;63.94
45888;BME280;31595;51.418;7.572;2023-05-01T05:16:59;100196.00;;;10.01;63.29
45888;BME280;31595;51.418;7.572;2023-05-01T05:19:26;100195.75;;;10.11;63.35
45888;BME280;31595;51.418;7.572;2023-05-01T05:21:53;100194.53;;;10.26;63.02
45888;BME280;31595;51.418;7.572;2023-05-01T05:24:20;100196.25;;;10.36;62.31
45888;BME280;31595;51.418;7.572;2023-05-01T05:26:47;100196.97;;;10.50;62.78
45888;BME280;31595;51.418;7.572;2023-05-01T05:29:16;100192.75;;;10.62;62.15
45888;BME280;31595;51.418;7.572;2023-05-01T05:31:44;100195.44;;;10.75;62.28
45888;BME280;31595;51.418;7.572;2023-05-01T05:34:12;100189.22;;;10.87;62.12
45888;BME280;31595;51.418;7.572;2023-05-01T05:36:39;100192.59;;;11.07;61.10
45888;BME280;31595;51.418;7.572;2023-05-01T05:39:06;100196.03;;;11.21;60.84
45888;BME280;31595;51.418;7.572;2023-05-01T05:41:34;100185.06;;;11.33;60.46
45888;BME280;31595;51.418;7.572;2023-05-01T05:44:01;100191.66;;;11.55;60.04
45888;BME280;31595;51.418;7.572;2023-05-01T05:46:29;100187.69;;;11.73;59.41
45888;BME280;31595;51.418;7.572;2023-05-01T05:48:56;100189.84;;;11.94;58.93
45888;BME280;31595;51.418;7.572;2023-05-01T05:51:24;100187.16;;;12.15;58.22
45888;BME280;31595;51.418;7.572;2023-05-01T05:53:51;100186.94;;;12.37;57.70
45888;BME280;31595;51.418;7.572;2023-05-01T05:56:18;100183.13;;;12.51;56.95
45888;BME280;31595;51.418;7.572;2023-05-01T05:58:45;100182.06;;;12.73;56.42
45888;BME280;31595;51.418;7.572;2023-05-01T06:01:13;100172.28;;;12.88;55.83
45888;BME280;31595;51.418;7.572;2023-05-01T06:03:42;100180.06;;;13.03;55.57
45888;BME280;31595;51.418;7.572;2023-05-01T06:06:09;100178.31;;;13.19;55.68
45888;BME280;31595;51.418;7.572;2023-05-01T06:08:36;100174.34;;;13.29;55.41
45888;BME280;31595;51.418;7.572;2023-05-01T06:11:04;100173.88;;;13.48;54.78
45888;BME280;31595;51.418;7.572;2023-05-01T06:13:32;100169.28;;;13.65;55.26
45888;BME280;31595;51.418;7.572;2023-05-01T06:15:59;100173.88;;;13.81;53.49
45888;BME280;31595;51.418;7.572;2023-05-01T06:18:26;100170.47;;;13.97;53.32
45888;BME280;31595;51.418;7.572;2023-05-01T06:20:56;100173.31;;;14.09;53.78
45888;BME280;31595;51.418;7.572;2023-05-01T06:23:24;100171.69;;;14.20;53.66
45888;BME280;31595;51.418;7.572;2023-05-01T06:25:51;100177.81;;;14.35;53.33
45888;BME280;31595;51.418;7.572;2023-05-01T06:28:19;100173.16;;;14.51;52.19
45888;BME280;31595;51.418;7.572;2023-05-01T06:30:46;100165.84;;;14.71;53.12
45888;BME280;31595;51.418;7.572;2023-05-01T06:33:13;100165.97;;;14.87;51.72
45888;BME280;31595;51.418;7.572;2023-05-01T06:35:41;100171.78;;;15.07;52.44
45888;BME280;31595;51.418;7.572;2023-05-01T06:38:10;100170.13;;;15.18;51.87
45888;BME280;31595;51.418;7.572;2023-05-01T06:40:37;100165.06;;;15.36;52.60
45888;BME280;31595;51.418;7.572;2023-05-01T06:43:05;100158.81;;;15.55;52.16
45888;BME280;31595;51.418;7.572;2023-05-01T06:45:32;100161.81;;;15.74;51.42
45888;BME280;31595;51.418;7.572;2023-05-01T06:47:59;100158.16;;;15.86;51.57
45888;BME280;31595;51.418;7.572;2023-05-01T06:50:27;100166.06;;;15.96;51.32
45888;BME280;31595;51.418;7.572;2023-05-01T06:52:54;100158.28;;;16.06;50.47
45888;BME280;31595;51.418;7.572;2023-05-01T06:55:23;100157.03;;;16.19;51.41
45888;BME280;31595;51.418;7.572;2023-05-01T06:57:50;100157.06;;;16.35;50.32
45888;BME280;31595;51.418;7.572;2023-05-01T07:00:18;100160.81;;;16.55;50.40
45888;BME280;31595;51.418;7.572;2023-05-01T07:02:45;100154.25;;;16.67;50.84
45888;BME280;31595;51.418;7.572;2023-05-01T07:05:12;100156.28;;;16.82;50.66
45888;BME280;31595;51.418;7.572;2023-05-01T07:07:39;100157.47;;;16.81;50.77
45888;BME280;31595;51.418;7.572;2023-05-01T07:10:07;100153.09;;;16.99;49.84
45888;BME280;31595;51.418;7.572;2023-05-01T07:12:36;100155.03;;;17.15;49.96
45888;BME280;31595;51.418;7.572;2023-05-01T07:15:04;100149.84;;;17.17;49.66
45888;BME280;31595;51.418;7.572;2023-05-01T07:17:31;100150.94;;;17.48;48.61
45888;BME280;31595;51.418;7.572;2023-05-01T07:19:59;100142.94;;;17.69;47.87
45888;BME280;31595;51.418;7.572;2023-05-01T07:22:26;100135.38;;;18.12;46.66
45888;BME280;31595;51.418;7.572;2023-05-01T07:24:54;100144.41;;;18.44;46.33
45888;BME280;31595;51.418;7.572;2023-05-01T07:27:21;100141.66;;;18.71;45.77
45888;BME280;31595;51.418;7.572;2023-05-01T07:29:51;100143.19;;;18.69;45.41
45888;BME280;31595;51.418;7.572;2023-05-01T07:32:18;100141.25;;;18.73;45.66
45888;BME280;31595;51.418;7.572;2023-05-01T07:34:45;100140.69;;;18.86;45.04
45888;BME280;31595;51.418;7.572;2023-05-01T07:37:12;100138.94;;;18.78;43.66
45888;BME280;31595;51.418;7.572;2023-05-01T07:39:40;100140.50;;;18.76;43.86
45888;BME280;31595;51.418;7.572;2023-05-01T07:42:07;100133.81;;;18.84;44.50
45888;BME280;31595;51.418;7.572;2023-05-01T07:44:34;100140.75;;;18.90;42.84
45888;BME280;31595;51.418;7.572;2023-05-01T07:47:03;100139.34;;;19.03;42.68
45888;BME280;31595;51.418;7.572;2023-05-01T07:49:34;100129.78;;;19.12;42.71
45888;BME280;31595;51.418;7.572;2023-05-01T07:52:02;100132.34;;;19.20;42.66
45888;BME280;31595;51.418;7.572;2023-05-01T07:54:30;100130.22;;;19.44;41.79
45888;BME280;31595;51.418;7.572;2023-05-01T07:56:57;100131.34;;;19.66;41.24
45888;BME280;31595;51.418;7.572;2023-05-01T07:59:24;100132.78;;;19.83;41.24
45888;BME280;31595;51.418;7.572;2023-05-01T08:01:51;100129.63;;;19.92;41.23
45888;BME280;31595;51.418;7.572;2023-05-01T08:04:20;100131.41;;;20.07;41.42
45888;BME280;31595;51.418;7.572;2023-05-01T08:06:48;100131.56;;;20.21;39.98
45888;BME280;31595;51.418;7.572;2023-05-01T08:09:16;100131.72;;;20.36;40.12
45888;BME280;31595;51.418;7.572;2023-05-01T08:11:43;100128.22;;;20.50;39.92
45888;BME280;31595;51.418;7.572;2023-05-01T08:14:10;100124.28;;;20.61;39.39
45888;BME280;31595;51.418;7.572;2023-05-01T08:16:38;100116.31;;;20.78;39.41
45888;BME280;31595;51.418;7.572;2023-05-01T08:19:05;100133.56;;;21.14;37.93
45888;BME280;31595;51.418;7.572;2023-05-01T08:21:33;100120.66;;;21.20;38.23
45888;BME280;31595;51.418;7.572;2023-05-01T08:24:01;100123.69;;;21.48;37.15
45888;BME280;31595;51.418;7.572;2023-05-01T08:26:29;100118.13;;;21.77;36.20
45888;BME280;31595;51.418;7.572;2023-05-01T08:28:56;100116.09;;;21.81;35.78
45888;BME280;31595;51.418;7.572;2023-05-01T08:31:23;100114.53;;;22.02;35.83
45888;BME280;31595;51.418;7.572;2023-05-01T08:33:51;100106.94;;;22.35;35.11
45888;BME280;31595;51.418;7.572;2023-05-01T08:36:18;100106.56;;;22.72;35.07
45888;BME280;31595;51.418;7.572;2023-05-01T08:38:47;100102.72;;;23.50;33.02
45888;BME280;31595;51.418;7.572;2023-05-01T08:41:15;100111.63;;;24.34;32.39
45888;BME280;31595;51.418;7.572;2023-05-01T08:43:42;100099.34;;;24.47;31.78
45888;BME280;31595;51.418;7.572;2023-05-01T08:46:11;100100.97;;;24.48;31.60
45888;BME280;31595;51.418;7.572;2023-05-01T08:48:41;100102.72;;;24.84;31.06
45888;BME280;31595;51.418;7.572;2023-05-01T08:51:11;100099.19;;;24.69;31.85
45888;BME280;31595;51.418;7.572;2023-05-01T08:53:42;100100.53;;;24.99;31.31
45888;BME280;31595;51.418;7.572;2023-05-01T08:56:11;100106.16;;;25.47;30.38
45888;BME280;31595;51.418;7.572;2023-05-01T08:58:40;100097.22;;;25.76;29.30
45888;BME280;31595;51.418;7.572;2023-05-01T09:01:12;100096.22;;;25.94;28.84
45888;BME280;31595;51.418;7.572;2023-05-01T09:03:41;100096.59;;;25.96;29.95
45888;BME280;31595;51.418;7.572;2023-05-01T09:06:09;100094.22;;;26.18;29.20
45888;BME280;31595;51.418;7.572;2023-05-01T09:08:36;100091.16;;;26.56;28.96
45888;BME280;31595;51.418;7.572;2023-05-01T09:11:04;100085.09;;;26.77;28.92
45888;BME280;31595;51.418;7.572;2023-05-01T09:13:33;100083.19;;;27.14;28.07
45888;BME280;31595;51.418;7.572;2023-05-01T09:16:00;100084.84;;;27.35;27.65
45888;BME280;31595;51.418;7.572;2023-05-01T09:18:28;100084.09;;;27.71;26.95
45888;BME280;31595;51.418;7.572;2023-05-01T09:20:56;100081.72;;;28.06;27.03
45888;BME280;31595;51.418;7.572;2023-05-01T09:23:24;100083.75;;;28.42;26.90
45888;BME280;31595;51.418;7.572;2023-05-01T09:25:52;100072.97;;;29.11;25.40
45888;BME280;31595;51.418;7.572;2023-05-01T09:28:42;100069.72;;;30.70;23.46
45888;BME280;31595;51.418;7.572;2023-05-01T09:31:20;100068.84;;;32.46;22.89
45888;BME280;31595;51.418;7.572;2023-05-01T09:33:51;100071.31;;;33.86;21.39
45888;BME280;31595;51.418;7.572;2023-05-01T09:36:20;100075.84;;;35.11;20.13
45888;BME280;31595;51.418;7.572;2023-05-01T09:38:48;100069.75;;;36.08;18.54
45888;BME280;31595;51.418;7.572;2023-05-01T09:41:16;100060.19;;;37.34;18.31
45888;BME280;31595;51.418;7.572;2023-05-01T09:43:50;100062.78;;;38.48;16.88
45888;BME280;31595;51.418;7.572;2023-05-01T09:46:17;100057.94;;;39.42;15.69
45888;BME280;31595;51.418;7.572;2023-05-01T09:48:51;100056.69;;;40.05;15.96
45888;BME280;31595;51.418;7.572;2023-05-01T09:51:21;100056.59;;;40.78;14.97
45888;BME280;31595;51.418;7.572;2023-05-01T09:53:49;100055.59;;;41.23;14.28
45888;BME280;31595;51.418;7.572;2023-05-01T09:56:17;100053.06;;;41.50;14.01
45888;BME280;31595;51.418;7.572;2023-05-01T09:58:45;100058.28;;;39.89;14.72
45888;BME280;31595;51.418;7.572;2023-05-01T10:01:13;100048.41;;;41.24;13.45
45888;BME280;31595;51.418;7.572;2023-05-01T10:03:42;100048.22;;;42.24;13.45
45888;BME280;31595;51.418;7.572;2023-05-01T10:06:10;100042.66;;;41.90;12.44
45888;BME280;31595;51.418;7.572;2023-05-01T10:08:46;100046.28;;;41.66;12.75
45888;BME280;31595;51.418;7.572;2023-05-01T10:11:13;100046.81;;;41.29;12.29
45888;BME280;31595;51.418;7.572;2023-05-01T10:13:40;100047.03;;;40.61;13.01
45888;BME280;31595;51.418;7.572;2023-05-01T10:16:27;100043.44;;;39.87;13.24
45888;BME280;31595;51.418;7.572;2023-05-01T10:18:55;100039.19;;;38.83;13.94
45888;BME280;31595;51.418;7.572;2023-05-01T10:21:23;100051.19;;;36.91;15.11
45888;BME280;31595;51.418;7.572;2023-05-01T10:23:50;100050.38;;;35.84;15.28
45888;BME280;31595;51.418;7.572;2023-05-01T10:26:18;100048.31;;;34.92;16.80
45888;BME280;31595;51.418;7.572;2023-05-01T10:28:48;100048.56;;;33.79;17.26
45888;BME280;31595;51.418;7.572;2023-05-01T10:31:15;100040.91;;;33.02;18.20
45888;BME280;31595;51.418;7.572;2023-05-01T10:33:45;100042.41;;;32.39;18.46
45888;BME280;31595;51.418;7.572;2023-05-01T10:36:16;100046.63;;;31.53;20.48
45888;BME280;31595;51.418;7.572;2023-05-01T10:38:45;100049.78;;;30.89;20.50
45888;BME280;31595;51.418;7.572;2023-05-01T10:41:13;100048.63;;;30.39;21.45
45888;BME280;31595;51.418;7.572;2023-05-01T10:43:41;100049.88;;;29.73;21.91
45888;BME280;31595;51.418;7.572;2023-05-01T10:46:27;100044.41;;;29.63;21.41
45888;BME280;31595;51.418;7.572;2023-05-01T10:48:57;100052.88;;;29.11;22.41
45888;BME280;31595;51.418;7.572;2023-05-01T10:51:25;100044.09;;;29.02;22.50
45888;BME280;31595;51.418;7.572;2023-05-01T10:54:21;100046.34;;;29.53;22.62
45888;BME280;31595;51.418;7.572;2023-05-01T10:56:49;100041.81;;;29.26;21.99
45888;BME280;31595;51.418;7.572;2023-05-01T10:59:17;100031.06;;;29.43;21.68
45888;BME280;31595;51.418;7.572;2023-05-01T11:01:45;100036.19;;;31.02;20.07
45888;BME280;31595;51.418;7.572;2023-05-01T11:07:17;100033.72;;;31.35;21.08
45888;BME280;31595;51.418;7.572;2023-05-01T11:09:47;100033.72;;;31.89;21.14
45888;BME280;31595;51.418;7.572;2023-05-01T11:12:46;100027.47;;;32.22;20.94
45888;BME280;31595;51.418;7.572;2023-05-01T11:15:24;100022.94;;;31.27;21.43
45888;BME280;31595;51.418;7.572;2023-05-01T11:17:52;100031.50;;;30.22;22.10
45888;BME280;31595;51.418;7.572;2023-05-01T11:20:44;100030.59;;;29.32;22.65
45888;BME280;31595;51.418;7.572;2023-05-01T11:23:20;100035.00;;;28.74;24.01
45888;BME280;31595;51.418;7.572;2023-05-01T11:25:48;100035.66;;;28.17;24.71
45888;BME280;31595;51.418;7.572;2023-05-01T11:28:19;100036.19;;;27.75;25.50
45888;BME280;31595;51.418;7.572;2023-05-01T11:30:50;100027.00;;;27.27;26.29
45888;BME280;31595;51.418;7.572;2023-05-01T11:33:21;100034.50;;;26.78;29.86
45888;BME280;31595;51.418;7.572;2023-05-01T11:35:58;100044.47;;;26.42;32.39
45888;BME280;31595;51.418;7.572;2023-05-01T11:38:27;100037.66;;;26.09;32.19
45888;BME280;31595;51.418;7.572;2023-05-01T11:40:59;100040.44;;;25.85;28.77
45888;BME280;31595;51.418;7.572;2023-05-01T11:43:28;100042.94;;;25.52;30.60
45888;BME280;31595;51.418;7.572;2023-05-01T11:45:55;100040.88;;;25.22;32.99
45888;BME280;31595;51.418;7.572;2023-05-01T11:48:28;100041.78;;;25.12;31.31
45888;BME280;31595;51.418;7.572;2023-05-01T11:50:55;100035.09;;;24.88;31.07
45888;BME280;31595;51.418;7.572;2023-05-01T11:53:22;100047.97;;;24.65;31.05
45888;BME280;31595;51.418;7.572;2023-05-01T11:55:51;100035.06;;;24.50;30.68
45888;BME280;31595;51.418;7.572;2023-05-01T11:58:31;100035.44;;;24.56;32.42
45888;BME280;31595;51.418;7.572;2023-05-01T12:00:59;100039.75;;;24.71;30.66
45888;BME280;31595;51.418;7.572;2023-05-01T12:03:26;100040.25;;;24.62;33.48
45888;BME280;31595;51.418;7.572;2023-05-01T12:05:54;100035.44;;;24.56;33.51
45888;BME280;31595;51.418;7.572;2023-05-01T12:08:23;100032.66;;;24.45;33.27
45888;BME280;31595;51.418;7.572;2023-05-01T12:10:52;100030.31;;;24.33;28.73
45888;BME280;31595;51.418;7.572;2023-05-01T12:13:21;100027.94;;;24.27;28.40
45888;BME280;31595;51.418;7.572;2023-05-01T12:15:49;100035.75;;;24.16;28.62
45888;BME280;31595;51.418;7.572;2023-05-01T12:18:18;100026.97;;;23.93;28.07
45888;BME280;31595;51.418;7.572;2023-05-01T12:20:47;100024.22;;;23.78;28.63
45888;BME280;31595;51.418;7.572;2023-05-01T12:23:15;100030.75;;;23.68;29.53
45888;BME280;31595;51.418;7.572;2023-05-01T12:25:43;100026.38;;;23.53;29.73
45888;BME280;31595;51.418;7.572;2023-05-01T12:28:13;100026.44;;;23.38;29.93
45888;BME280;31595;51.418;7.572;2023-05-01T12:30:42;100028.53;;;23.27;30.44
45888;BME280;31595;51.418;7.572;2023-05-01T12:33:12;100030.13;;;23.28;30.00
45888;BME280;31595;51.418;7.572;2023-05-01T12:35:40;100030.97;;;23.25;29.73
45888;BME280;31595;51.418;7.572;2023-05-01T12:38:13;100023.25;;;23.22;29.68
45888;BME280;31595;51.418;7.572;2023-05-01T12:40:51;100017.16;;;23.27;29.48
45888;BME280;31595;51.418;7.572;2023-05-01T12:43:28;100020.34;;;23.40;29.19
45888;BME280;31595;51.418;7.572;2023-05-01T12:45:55;100017.78;;;23.60;28.79
45888;BME280;31595;51.418;7.572;2023-05-01T12:48:23;100028.69;;;23.79;28.07
45888;BME280;31595;51.418;7.572;2023-05-01T12:50:50;100013.47;;;24.07;28.50
45888;BME280;31595;51.418;7.572;2023-05-01T12:53:20;100022.00;;;25.94;26.77
45888;BME280;31595;51.418;7.572;2023-05-01T12:55:49;100014.41;;;27.61;24.18
45888;BME280;31595;51.418;7.572;2023-05-01T12:58:17;100010.59;;;30.69;21.49
45888;BME280;31595;51.418;7.572;2023-05-01T13:00:47;99999.31;;;32.26;20.58
45888;BME280;31595;51.418;7.572;2023-05-01T13:03:14;100000.72;;;33.08;20.15
45888;BME280;31595;51.418;7.572;2023-05-01T13:05:52;99993.06;;;33.56;20.10
45888;BME280;31595;51.418;7.572;2023-05-01T13:08:26;99998.59;;;34.54;20.41
45888;BME280;31595;51.418;7.572;2023-05-01T13:10:55;99995.00;;;35.23;16.92
45888;BME280;31595;51.418;7.572;2023-05-01T13:13:23;99994.22;;;34.59;17.91